FOON/MVB METAR and TAF weather

Enter ICAO airport designator
Station Type Date Time Source
FOON METAR 2021/01/15 19:00 UTC NOAA

FOON 151900Z 32006KT 9999 TS FEW015 FEW020CB 26/25 Q1010


Station Type Date Time Source
FOON Decoded METAR 2021/01/15 19:00 UTC NOAA

Franceville / Mvengue, Gabon (FOON) 01-39S 013-26E
Jan 15, 2021 - 02:00 PM EST / 2021.01.15 1900 UTC
Wind: from the NW (320 degrees) at 7 MPH (6 KT):0
Visibility: greater than 7 mile(s):0
Sky conditions: mostly clear
Weather: thunder; Cumulonimbus clouds observed
Temperature: 78 F (26 C)
Dew Point: 77 F (25 C)
Relative Humidity: 94%
Pressure (altimeter): 29.83 in. Hg (1010 hPa)
ob: FOON 151900Z 32006KT 9999 TS FEW015 FEW020CB 26/25 Q1010
cycle: 19

Station Type Date Time Source
FOON TAF 2012/02/17 18:21 UTC NOAA

TAF TAF FOON 151600Z 1518/1618 20004KT 9999 BKN006
TEMPO 1603/1607 0200 FG OVC002
BECMG 1612/1614 TS SCT015 FEW020CB BKN030

Example: see airport list